sensor_id;sensor_type;location;lat;lon;timestamp;P1;durP1;ratioP1;P2;durP2;ratioP2
57899;SDS011;60605;53.716;19.940;2023-07-24T00:00:53;8.60;;;6.00;;
57899;SDS011;60605;53.716;19.940;2023-07-24T00:06:06;8.10;;;6.10;;
57899;SDS011;60605;53.716;19.940;2023-07-24T00:11:09;6.30;;;5.60;;
57899;SDS011;60605;53.716;19.940;2023-07-24T00:16:12;6.30;;;5.60;;
57899;SDS011;60605;53.716;19.940;2023-07-24T00:21:16;8.20;;;6.50;;
57899;SDS011;60605;53.716;19.940;2023-07-24T00:26:19;6.60;;;5.60;;
57899;SDS011;60605;53.716;19.940;2023-07-24T00:31:23;8.10;;;5.90;;
57899;SDS011;60605;53.716;19.940;2023-07-24T00:36:26;6.90;;;5.60;;
57899;SDS011;60605;53.716;19.940;2023-07-24T00:41:30;9.20;;;6.20;;
57899;SDS011;60605;53.716;19.940;2023-07-24T00:46:34;8.10;;;6.20;;
57899;SDS011;60605;53.716;19.940;2023-07-24T00:51:38;7.50;;;6.40;;
57899;SDS011;60605;53.716;19.940;2023-07-24T00:56:43;7.10;;;6.10;;
57899;SDS011;60605;53.716;19.940;2023-07-24T01:01:48;7.90;;;6.00;;
57899;SDS011;60605;53.716;19.940;2023-07-24T01:06:51;7.30;;;6.00;;
57899;SDS011;60605;53.716;19.940;2023-07-24T01:11:59;7.20;;;6.20;;
57899;SDS011;60605;53.716;19.940;2023-07-24T01:17:18;8.10;;;6.10;;
57899;SDS011;60605;53.716;19.940;2023-07-24T01:27:32;7.00;;;6.30;;
57899;SDS011;60605;53.716;19.940;2023-07-24T01:32:36;9.50;;;6.60;;
57899;SDS011;60605;53.716;19.940;2023-07-24T01:37:41;7.10;;;6.30;;
57899;SDS011;60605;53.716;19.940;2023-07-24T01:42:46;8.10;;;6.80;;
57899;SDS011;60605;53.716;19.940;2023-07-24T01:47:49;11.30;;;7.40;;
57899;SDS011;60605;53.716;19.940;2023-07-24T01:52:52;8.20;;;6.20;;
57899;SDS011;60605;53.716;19.940;2023-07-24T01:57:56;8.50;;;7.10;;
57899;SDS011;60605;53.716;19.940;2023-07-24T02:02:59;9.30;;;7.10;;
57899;SDS011;60605;53.716;19.940;2023-07-24T02:08:03;9.90;;;7.50;;
57899;SDS011;60605;53.716;19.940;2023-07-24T02:13:06;11.00;;;7.70;;
57899;SDS011;60605;53.716;19.940;2023-07-24T02:18:10;8.20;;;7.40;;
57899;SDS011;60605;53.716;19.940;2023-07-24T02:23:13;11.40;;;7.70;;
57899;SDS011;60605;53.716;19.940;2023-07-24T02:28:17;9.80;;;8.10;;
57899;SDS011;60605;53.716;19.940;2023-07-24T02:33:20;13.70;;;10.10;;
57899;SDS011;60605;53.716;19.940;2023-07-24T02:38:23;9.80;;;8.00;;
57899;SDS011;60605;53.716;19.940;2023-07-24T02:43:27;9.40;;;7.40;;
57899;SDS011;60605;53.716;19.940;2023-07-24T02:48:30;8.80;;;7.10;;
57899;SDS011;60605;53.716;19.940;2023-07-24T02:53:33;11.60;;;8.00;;
57899;SDS011;60605;53.716;19.940;2023-07-24T02:58:36;10.20;;;7.90;;
57899;SDS011;60605;53.716;19.940;2023-07-24T03:03:40;12.00;;;8.30;;
57899;SDS011;60605;53.716;19.940;2023-07-24T03:08:44;9.80;;;8.10;;
57899;SDS011;60605;53.716;19.940;2023-07-24T03:13:47;11.10;;;7.90;;
57899;SDS011;60605;53.716;19.940;2023-07-24T03:18:50;12.50;;;8.90;;
57899;SDS011;60605;53.716;19.940;2023-07-24T03:23:54;8.60;;;7.00;;
57899;SDS011;60605;53.716;19.940;2023-07-24T03:28:57;11.00;;;7.90;;
57899;SDS011;60605;53.716;19.940;2023-07-24T03:39:03;11.20;;;7.60;;
57899;SDS011;60605;53.716;19.940;2023-07-24T03:44:06;7.50;;;6.80;;
57899;SDS011;60605;53.716;19.940;2023-07-24T03:49:10;9.30;;;7.40;;
57899;SDS011;60605;53.716;19.940;2023-07-24T03:54:13;11.40;;;6.90;;
57899;SDS011;60605;53.716;19.940;2023-07-24T03:59:16;6.50;;;5.80;;
57899;SDS011;60605;53.716;19.940;2023-07-24T04:04:20;19.80;;;12.80;;
57899;SDS011;60605;53.716;19.940;2023-07-24T04:09:23;12.70;;;7.60;;
57899;SDS011;60605;53.716;19.940;2023-07-24T04:14:26;8.70;;;5.70;;
57899;SDS011;60605;53.716;19.940;2023-07-24T04:19:30;6.00;;;5.40;;
57899;SDS011;60605;53.716;19.940;2023-07-24T04:24:33;8.80;;;5.40;;
57899;SDS011;60605;53.716;19.940;2023-07-24T04:29:38;5.90;;;5.20;;
57899;SDS011;60605;53.716;19.940;2023-07-24T04:34:41;6.20;;;5.30;;
57899;SDS011;60605;53.716;19.940;2023-07-24T04:39:44;6.40;;;5.70;;
57899;SDS011;60605;53.716;19.940;2023-07-24T04:44:48;5.80;;;5.00;;
57899;SDS011;60605;53.716;19.940;2023-07-24T04:49:52;6.70;;;5.50;;
57899;SDS011;60605;53.716;19.940;2023-07-24T04:55:00;6.90;;;5.30;;
57899;SDS011;60605;53.716;19.940;2023-07-24T05:00:03;6.90;;;5.50;;
57899;SDS011;60605;53.716;19.940;2023-07-24T05:05:08;9.10;;;4.90;;
57899;SDS011;60605;53.716;19.940;2023-07-24T05:10:12;6.80;;;5.20;;
57899;SDS011;60605;53.716;19.940;2023-07-24T05:15:16;5.50;;;4.90;;
57899;SDS011;60605;53.716;19.940;2023-07-24T05:20:20;5.70;;;5.10;;
57899;SDS011;60605;53.716;19.940;2023-07-24T05:25:23;6.90;;;5.00;;
57899;SDS011;60605;53.716;19.940;2023-07-24T05:30:26;5.80;;;5.10;;
57899;SDS011;60605;53.716;19.940;2023-07-24T05:35:29;5.40;;;4.90;;
57899;SDS011;60605;53.716;19.940;2023-07-24T05:40:33;8.40;;;5.20;;
57899;SDS011;60605;53.716;19.940;2023-07-24T05:45:36;7.90;;;5.10;;
57899;SDS011;60605;53.716;19.940;2023-07-24T05:50:40;6.90;;;4.80;;
57899;SDS011;60605;53.716;19.940;2023-07-24T05:55:44;5.90;;;4.30;;
57899;SDS011;60605;53.716;19.940;2023-07-24T06:00:48;7.80;;;5.00;;
57899;SDS011;60605;53.716;19.940;2023-07-24T06:05:55;6.90;;;5.10;;
57899;SDS011;60605;53.716;19.940;2023-07-24T06:11:01;4.90;;;4.40;;
57899;SDS011;60605;53.716;19.940;2023-07-24T06:16:05;6.20;;;4.80;;
57899;SDS011;60605;53.716;19.940;2023-07-24T06:21:10;4.90;;;4.30;;
57899;SDS011;60605;53.716;19.940;2023-07-24T06:26:14;4.70;;;4.10;;
57899;SDS011;60605;53.716;19.940;2023-07-24T06:31:17;6.40;;;4.50;;
57899;SDS011;60605;53.716;19.940;2023-07-24T06:36:20;6.80;;;4.60;;
57899;SDS011;60605;53.716;19.940;2023-07-24T06:41:24;6.50;;;4.50;;
57899;SDS011;60605;53.716;19.940;2023-07-24T06:46:28;8.10;;;5.00;;
57899;SDS011;60605;53.716;19.940;2023-07-24T06:51:31;7.00;;;4.60;;
57899;SDS011;60605;53.716;19.940;2023-07-24T06:56:35;5.90;;;4.60;;
57899;SDS011;60605;53.716;19.940;2023-07-24T07:01:38;4.70;;;4.20;;
57899;SDS011;60605;53.716;19.940;2023-07-24T07:06:42;5.90;;;4.20;;
57899;SDS011;60605;53.716;19.940;2023-07-24T07:11:46;4.60;;;4.10;;
57899;SDS011;60605;53.716;19.940;2023-07-24T07:16:49;5.00;;;4.00;;
57899;SDS011;60605;53.716;19.940;2023-07-24T07:21:53;5.30;;;4.00;;
57899;SDS011;60605;53.716;19.940;2023-07-24T07:26:56;4.40;;;3.90;;
57899;SDS011;60605;53.716;19.940;2023-07-24T07:31:59;4.50;;;4.00;;
57899;SDS011;60605;53.716;19.940;2023-07-24T07:37:03;5.10;;;4.00;;
57899;SDS011;60605;53.716;19.940;2023-07-24T07:42:07;4.20;;;3.80;;
57899;SDS011;60605;53.716;19.940;2023-07-24T07:47:21;6.50;;;3.80;;
57899;SDS011;60605;53.716;19.940;2023-07-24T07:52:24;4.90;;;4.10;;
57899;SDS011;60605;53.716;19.940;2023-07-24T07:57:28;6.50;;;3.80;;
57899;SDS011;60605;53.716;19.940;2023-07-24T08:02:32;4.70;;;3.90;;
57899;SDS011;60605;53.716;19.940;2023-07-24T08:07:36;3.90;;;3.50;;
57899;SDS011;60605;53.716;19.940;2023-07-24T08:12:40;6.60;;;3.80;;
57899;SDS011;60605;53.716;19.940;2023-07-24T08:17:43;5.50;;;3.40;;
57899;SDS011;60605;53.716;19.940;2023-07-24T08:22:47;5.80;;;3.80;;
57899;SDS011;60605;53.716;19.940;2023-07-24T08:27:50;4.50;;;3.40;;
57899;SDS011;60605;53.716;19.940;2023-07-24T08:33:07;5.90;;;3.30;;
57899;SDS011;60605;53.716;19.940;2023-07-24T08:38:10;5.30;;;3.80;;
57899;SDS011;60605;53.716;19.940;2023-07-24T08:43:16;4.80;;;3.50;;
57899;SDS011;60605;53.716;19.940;2023-07-24T08:48:20;4.50;;;3.10;;
57899;SDS011;60605;53.716;19.940;2023-07-24T08:53:25;4.70;;;3.10;;
57899;SDS011;60605;53.716;19.940;2023-07-24T08:58:32;5.10;;;3.40;;
57899;SDS011;60605;53.716;19.940;2023-07-24T09:03:36;3.70;;;3.30;;
57899;SDS011;60605;53.716;19.940;2023-07-24T09:08:42;4.40;;;3.40;;
57899;SDS011;60605;53.716;19.940;2023-07-24T09:13:46;3.20;;;2.90;;
57899;SDS011;60605;53.716;19.940;2023-07-24T09:18:51;3.60;;;3.30;;
57899;SDS011;60605;53.716;19.940;2023-07-24T09:24:08;3.20;;;2.90;;
57899;SDS011;60605;53.716;19.940;2023-07-24T09:29:16;3.60;;;3.30;;
57899;SDS011;60605;53.716;19.940;2023-07-24T09:34:20;3.50;;;2.80;;
57899;SDS011;60605;53.716;19.940;2023-07-24T09:39:24;3.40;;;3.10;;
57899;SDS011;60605;53.716;19.940;2023-07-24T09:44:32;3.50;;;3.20;;
57899;SDS011;60605;53.716;19.940;2023-07-24T09:49:35;3.30;;;3.00;;
57899;SDS011;60605;53.716;19.940;2023-07-24T09:54:44;3.30;;;3.00;;
57899;SDS011;60605;53.716;19.940;2023-07-24T09:59:56;3.80;;;3.20;;
57899;SDS011;60605;53.716;19.940;2023-07-24T10:05:00;3.50;;;2.60;;
57899;SDS011;60605;53.716;19.940;2023-07-24T10:10:04;5.30;;;2.70;;
57899;SDS011;60605;53.716;19.940;2023-07-24T10:15:10;3.20;;;2.60;;
57899;SDS011;60605;53.716;19.940;2023-07-24T10:20:15;5.00;;;2.60;;
57899;SDS011;60605;53.716;19.940;2023-07-24T10:25:28;2.30;;;2.20;;
57899;SDS011;60605;53.716;19.940;2023-07-24T10:30:35;3.70;;;2.60;;
57899;SDS011;60605;53.716;19.940;2023-07-24T10:36:07;2.70;;;2.30;;
57899;SDS011;60605;53.716;19.940;2023-07-24T10:41:13;4.50;;;2.40;;
57899;SDS011;60605;53.716;19.940;2023-07-24T10:46:18;4.40;;;2.60;;
57899;SDS011;60605;53.716;19.940;2023-07-24T10:51:23;2.60;;;2.40;;
57899;SDS011;60605;53.716;19.940;2023-07-24T10:56:26;3.80;;;2.70;;
57899;SDS011;60605;53.716;19.940;2023-07-24T11:01:30;2.50;;;2.40;;
57899;SDS011;60605;53.716;19.940;2023-07-24T11:06:37;2.90;;;2.70;;
57899;SDS011;60605;53.716;19.940;2023-07-24T11:11:41;2.90;;;2.70;;
57899;SDS011;60605;53.716;19.940;2023-07-24T11:16:48;5.90;;;2.60;;
57899;SDS011;60605;53.716;19.940;2023-07-24T11:21:52;3.30;;;2.80;;
57899;SDS011;60605;53.716;19.940;2023-07-24T11:26:55;3.20;;;2.90;;
57899;SDS011;60605;53.716;19.940;2023-07-24T11:31:59;3.20;;;2.80;;
57899;SDS011;60605;53.716;19.940;2023-07-24T11:37:02;3.50;;;3.10;;
57899;SDS011;60605;53.716;19.940;2023-07-24T11:42:09;2.90;;;2.50;;
57899;SDS011;60605;53.716;19.940;2023-07-24T11:47:13;4.80;;;2.80;;
57899;SDS011;60605;53.716;19.940;2023-07-24T11:52:16;2.60;;;2.40;;
57899;SDS011;60605;53.716;19.940;2023-07-24T11:57:20;3.10;;;2.80;;
57899;SDS011;60605;53.716;19.940;2023-07-24T12:02:25;3.10;;;2.80;;
57899;SDS011;60605;53.716;19.940;2023-07-24T12:07:33;4.00;;;3.00;;
57899;SDS011;60605;53.716;19.940;2023-07-24T12:12:38;5.20;;;3.20;;
57899;SDS011;60605;53.716;19.940;2023-07-24T12:17:51;5.70;;;2.80;;
57899;SDS011;60605;53.716;19.940;2023-07-24T12:22:54;3.30;;;3.00;;
57899;SDS011;60605;53.716;19.940;2023-07-24T12:27:58;2.90;;;2.70;;
57899;SDS011;60605;53.716;19.940;2023-07-24T12:33:01;3.00;;;2.70;;
57899;SDS011;60605;53.716;19.940;2023-07-24T12:38:04;2.60;;;2.40;;
57899;SDS011;60605;53.716;19.940;2023-07-24T12:43:08;3.10;;;2.70;;
57899;SDS011;60605;53.716;19.940;2023-07-24T12:48:12;4.50;;;2.80;;
57899;SDS011;60605;53.716;19.940;2023-07-24T12:53:15;2.70;;;2.50;;
57899;SDS011;60605;53.716;19.940;2023-07-24T12:58:23;3.10;;;2.60;;
57899;SDS011;60605;53.716;19.940;2023-07-24T13:03:26;2.90;;;2.70;;
57899;SDS011;60605;53.716;19.940;2023-07-24T13:08:30;3.40;;;2.80;;
57899;SDS011;60605;53.716;19.940;2023-07-24T13:13:33;2.70;;;2.50;;
57899;SDS011;60605;53.716;19.940;2023-07-24T13:18:39;2.90;;;2.50;;
57899;SDS011;60605;53.716;19.940;2023-07-24T13:23:42;3.10;;;2.60;;
57899;SDS011;60605;53.716;19.940;2023-07-24T13:28:46;3.20;;;2.50;;
57899;SDS011;60605;53.716;19.940;2023-07-24T13:33:49;4.40;;;2.60;;
57899;SDS011;60605;53.716;19.940;2023-07-24T13:38:52;3.30;;;2.60;;
57899;SDS011;60605;53.716;19.940;2023-07-24T13:43:55;2.90;;;2.60;;
57899;SDS011;60605;53.716;19.940;2023-07-24T13:48:59;4.00;;;2.80;;
57899;SDS011;60605;53.716;19.940;2023-07-24T13:54:03;3.50;;;2.60;;
57899;SDS011;60605;53.716;19.940;2023-07-24T13:59:06;6.20;;;3.00;;
57899;SDS011;60605;53.716;19.940;2023-07-24T14:04:09;5.80;;;3.10;;
57899;SDS011;60605;53.716;19.940;2023-07-24T14:09:15;2.80;;;2.60;;
57899;SDS011;60605;53.716;19.940;2023-07-24T14:14:18;3.40;;;3.00;;
57899;SDS011;60605;53.716;19.940;2023-07-24T14:19:22;2.90;;;2.70;;
57899;SDS011;60605;53.716;19.940;2023-07-24T14:24:26;3.70;;;2.90;;
57899;SDS011;60605;53.716;19.940;2023-07-24T14:29:29;6.20;;;3.50;;
57899;SDS011;60605;53.716;19.940;2023-07-24T14:34:33;4.80;;;3.10;;
57899;SDS011;60605;53.716;19.940;2023-07-24T14:39:36;5.20;;;2.80;;
57899;SDS011;60605;53.716;19.940;2023-07-24T14:44:39;2.70;;;2.50;;
57899;SDS011;60605;53.716;19.940;2023-07-24T14:49:44;4.90;;;3.00;;
57899;SDS011;60605;53.716;19.940;2023-07-24T14:54:47;4.80;;;2.80;;
57899;SDS011;60605;53.716;19.940;2023-07-24T14:59:50;3.20;;;2.90;;
57899;SDS011;60605;53.716;19.940;2023-07-24T15:04:54;2.60;;;2.40;;
57899;SDS011;60605;53.716;19.940;2023-07-24T15:09:57;2.90;;;2.60;;
57899;SDS011;60605;53.716;19.940;2023-07-24T15:15:00;3.40;;;2.80;;
57899;SDS011;60605;53.716;19.940;2023-07-24T15:20:05;2.80;;;2.60;;
57899;SDS011;60605;53.716;19.940;2023-07-24T15:25:11;3.00;;;2.80;;
57899;SDS011;60605;53.716;19.940;2023-07-24T15:30:14;3.10;;;2.40;;
57899;SDS011;60605;53.716;19.940;2023-07-24T15:35:18;3.40;;;2.80;;
57899;SDS011;60605;53.716;19.940;2023-07-24T15:40:22;2.80;;;2.40;;
57899;SDS011;60605;53.716;19.940;2023-07-24T15:45:26;3.40;;;2.50;;
57899;SDS011;60605;53.716;19.940;2023-07-24T15:50:30;4.10;;;2.50;;
57899;SDS011;60605;53.716;19.940;2023-07-24T15:55:34;3.00;;;2.50;;
57899;SDS011;60605;53.716;19.940;2023-07-24T16:00:39;2.70;;;2.50;;
57899;SDS011;60605;53.716;19.940;2023-07-24T16:05:42;2.70;;;2.20;;
57899;SDS011;60605;53.716;19.940;2023-07-24T16:10:46;3.40;;;2.70;;
57899;SDS011;60605;53.716;19.940;2023-07-24T16:15:50;2.70;;;2.40;;
57899;SDS011;60605;53.716;19.940;2023-07-24T16:20:53;6.00;;;2.50;;
57899;SDS011;60605;53.716;19.940;2023-07-24T16:25:58;6.10;;;2.70;;
57899;SDS011;60605;53.716;19.940;2023-07-24T16:31:01;3.00;;;2.70;;
57899;SDS011;60605;53.716;19.940;2023-07-24T16:36:06;2.80;;;2.60;;
57899;SDS011;60605;53.716;19.940;2023-07-24T16:41:10;2.80;;;2.60;;
57899;SDS011;60605;53.716;19.940;2023-07-24T16:46:14;3.50;;;2.80;;
57899;SDS011;60605;53.716;19.940;2023-07-24T16:51:20;3.90;;;2.60;;
57899;SDS011;60605;53.716;19.940;2023-07-24T16:56:24;2.70;;;2.50;;
57899;SDS011;60605;53.716;19.940;2023-07-24T17:01:29;3.50;;;3.00;;
57899;SDS011;60605;53.716;19.940;2023-07-24T17:06:34;3.40;;;2.70;;
57899;SDS011;60605;53.716;19.940;2023-07-24T17:11:38;2.50;;;2.30;;
57899;SDS011;60605;53.716;19.940;2023-07-24T17:16:41;3.90;;;2.40;;
57899;SDS011;60605;53.716;19.940;2023-07-24T17:21:45;3.90;;;2.80;;
57899;SDS011;60605;53.716;19.940;2023-07-24T17:26:49;3.40;;;2.60;;
57899;SDS011;60605;53.716;19.940;2023-07-24T17:31:53;2.90;;;2.70;;
57899;SDS011;60605;53.716;19.940;2023-07-24T17:36:56;3.40;;;3.10;;
57899;SDS011;60605;53.716;19.940;2023-07-24T17:41:59;9.60;;;3.70;;
57899;SDS011;60605;53.716;19.940;2023-07-24T17:47:02;6.20;;;4.70;;
57899;SDS011;60605;53.716;19.940;2023-07-24T17:52:06;8.40;;;4.50;;
57899;SDS011;60605;53.716;19.940;2023-07-24T17:57:11;12.70;;;5.40;;
57899;SDS011;60605;53.716;19.940;2023-07-24T18:02:14;6.80;;;4.20;;
57899;SDS011;60605;53.716;19.940;2023-07-24T18:07:18;8.30;;;4.10;;
57899;SDS011;60605;53.716;19.940;2023-07-24T18:12:21;7.40;;;3.90;;
57899;SDS011;60605;53.716;19.940;2023-07-24T18:17:24;5.80;;;3.90;;
57899;SDS011;60605;53.716;19.940;2023-07-24T18:22:27;7.30;;;3.80;;
57899;SDS011;60605;53.716;19.940;2023-07-24T18:27:32;4.80;;;3.50;;
57899;SDS011;60605;53.716;19.940;2023-07-24T18:32:36;7.10;;;3.40;;
57899;SDS011;60605;53.716;19.940;2023-07-24T18:37:39;7.30;;;4.40;;
57899;SDS011;60605;53.716;19.940;2023-07-24T18:42:42;6.40;;;4.50;;
57899;SDS011;60605;53.716;19.940;2023-07-24T18:47:46;7.40;;;5.00;;
57899;SDS011;60605;53.716;19.940;2023-07-24T18:52:49;7.40;;;5.00;;
57899;SDS011;60605;53.716;19.940;2023-07-24T18:57:52;6.50;;;4.90;;
57899;SDS011;60605;53.716;19.940;2023-07-24T19:02:56;8.40;;;5.60;;
57899;SDS011;60605;53.716;19.940;2023-07-24T19:07:59;6.10;;;5.30;;
57899;SDS011;60605;53.716;19.940;2023-07-24T19:13:03;8.20;;;5.60;;
57899;SDS011;60605;53.716;19.940;2023-07-24T19:18:06;7.40;;;5.30;;
57899;SDS011;60605;53.716;19.940;2023-07-24T19:23:10;8.30;;;5.60;;
57899;SDS011;60605;53.716;19.940;2023-07-24T19:28:13;9.50;;;4.70;;
57899;SDS011;60605;53.716;19.940;2023-07-24T19:33:17;6.60;;;4.80;;
57899;SDS011;60605;53.716;19.940;2023-07-24T19:38:20;6.50;;;4.50;;
57899;SDS011;60605;53.716;19.940;2023-07-24T19:43:24;10.30;;;4.80;;
57899;SDS011;60605;53.716;19.940;2023-07-24T19:48:28;4.60;;;3.30;;
57899;SDS011;60605;53.716;19.940;2023-07-24T19:53:31;4.90;;;3.70;;
57899;SDS011;60605;53.716;19.940;2023-07-24T19:58:35;5.10;;;3.80;;
57899;SDS011;60605;53.716;19.940;2023-07-24T20:03:39;4.80;;;3.30;;
57899;SDS011;60605;53.716;19.940;2023-07-24T20:08:43;5.70;;;3.40;;
57899;SDS011;60605;53.716;19.940;2023-07-24T20:13:46;4.60;;;3.00;;
57899;SDS011;60605;53.716;19.940;2023-07-24T20:18:50;6.00;;;2.70;;
57899;SDS011;60605;53.716;19.940;2023-07-24T20:23:54;2.30;;;2.10;;
57899;SDS011;60605;53.716;19.940;2023-07-24T20:28:58;2.80;;;2.50;;
57899;SDS011;60605;53.716;19.940;2023-07-24T20:34:02;4.80;;;2.30;;
57899;SDS011;60605;53.716;19.940;2023-07-24T20:39:05;6.80;;;2.10;;
57899;SDS011;60605;53.716;19.940;2023-07-24T20:44:09;6.00;;;2.20;;
57899;SDS011;60605;53.716;19.940;2023-07-24T20:49:13;2.20;;;2.00;;
57899;SDS011;60605;53.716;19.940;2023-07-24T20:54:16;7.80;;;2.70;;
57899;SDS011;60605;53.716;19.940;2023-07-24T20:59:20;7.00;;;3.20;;
57899;SDS011;60605;53.716;19.940;2023-07-24T21:04:23;6.00;;;2.50;;
57899;SDS011;60605;53.716;19.940;2023-07-24T21:09:27;4.00;;;2.20;;
57899;SDS011;60605;53.716;19.940;2023-07-24T21:14:30;6.50;;;2.70;;
57899;SDS011;60605;53.716;19.940;2023-07-24T21:19:34;2.90;;;2.20;;
57899;SDS011;60605;53.716;19.940;2023-07-24T21:24:38;3.20;;;2.30;;
57899;SDS011;60605;53.716;19.940;2023-07-24T21:29:42;2.50;;;2.30;;
57899;SDS011;60605;53.716;19.940;2023-07-24T21:34:45;3.70;;;2.70;;
57899;SDS011;60605;53.716;19.940;2023-07-24T21:39:49;3.70;;;2.70;;
57899;SDS011;60605;53.716;19.940;2023-07-24T21:44:52;7.00;;;3.00;;
57899;SDS011;60605;53.716;19.940;2023-07-24T21:49:55;4.00;;;2.60;;
57899;SDS011;60605;53.716;19.940;2023-07-24T21:54:59;4.80;;;2.60;;
57899;SDS011;60605;53.716;19.940;2023-07-24T22:00:04;2.90;;;2.40;;
57899;SDS011;60605;53.716;19.940;2023-07-24T22:05:08;3.00;;;2.70;;
57899;SDS011;60605;53.716;19.940;2023-07-24T22:10:11;3.10;;;2.80;;
57899;SDS011;60605;53.716;19.940;2023-07-24T22:15:15;3.50;;;2.90;;
57899;SDS011;60605;53.716;19.940;2023-07-24T22:20:18;2.80;;;2.60;;
57899;SDS011;60605;53.716;19.940;2023-07-24T22:25:40;4.00;;;2.60;;
57899;SDS011;60605;53.716;19.940;2023-07-24T22:30:46;3.60;;;2.40;;
57899;SDS011;60605;53.716;19.940;2023-07-24T22:35:56;3.90;;;2.80;;
57899;SDS011;60605;53.716;19.940;2023-07-24T22:41:34;3.10;;;2.60;;
57899;SDS011;60605;53.716;19.940;2023-07-24T22:46:30;2.60;;;2.20;;
57899;SDS011;60605;53.716;19.940;2023-07-24T22:51:34;4.20;;;2.50;;
57899;SDS011;60605;53.716;19.940;2023-07-24T22:56:39;3.40;;;2.70;;
57899;SDS011;60605;53.716;19.940;2023-07-24T23:01:43;5.90;;;2.50;;
57899;SDS011;60605;53.716;19.940;2023-07-24T23:06:47;2.90;;;2.30;;
57899;SDS011;60605;53.716;19.940;2023-07-24T23:11:51;4.10;;;2.60;;
57899;SDS011;60605;53.716;19.940;2023-07-24T23:16:54;3.70;;;2.80;;
57899;SDS011;60605;53.716;19.940;2023-07-24T23:21:58;4.60;;;3.20;;
57899;SDS011;60605;53.716;19.940;2023-07-24T23:27:01;5.40;;;3.00;;
57899;SDS011;60605;53.716;19.940;2023-07-24T23:32:04;5.70;;;3.10;;
57899;SDS011;60605;53.716;19.940;2023-07-24T23:37:09;5.70;;;3.20;;
57899;SDS011;60605;53.716;19.940;2023-07-24T23:42:12;2.90;;;2.60;;
57899;SDS011;60605;53.716;19.940;2023-07-24T23:47:15;3.60;;;2.80;;
57899;SDS011;60605;53.716;19.940;2023-07-24T23:52:19;4.60;;;2.70;;
57899;SDS011;60605;53.716;19.940;2023-07-24T23:57:23;3.80;;;2.50;;
